createdAt,value
2023-01-04T00:03:16.564Z,0.7
2023-01-04T00:08:16.346Z,0.7
2023-01-04T00:18:16.364Z,1.3
2023-01-04T00:23:16.347Z,1.3
2023-01-04T00:33:16.354Z,1.6
2023-01-04T00:38:16.373Z,1.6
2023-01-04T00:43:16.351Z,1.1
2023-01-04T00:48:16.351Z,0.8
2023-01-04T00:53:16.381Z,1.0
2023-01-04T00:58:16.353Z,1.2
2023-01-04T01:03:16.406Z,2.4
2023-01-04T01:08:16.361Z,2.4
2023-01-04T01:13:16.370Z,3.4
2023-01-04T01:18:16.382Z,2.3
2023-01-04T01:23:16.367Z,3.9
2023-01-04T01:28:16.383Z,4.4
2023-01-04T01:33:16.350Z,3.3
2023-01-04T01:38:16.363Z,3.3
2023-01-04T01:43:16.355Z,0.7
2023-01-04T01:48:16.374Z,0.7
2023-01-04T01:53:16.364Z,2.0
2023-01-04T02:03:16.554Z,1.6
2023-01-04T02:08:16.401Z,1.6
2023-01-04T02:13:16.348Z,2.5
2023-01-04T02:18:16.365Z,1.3
2023-01-04T02:28:16.361Z,1.5
2023-01-04T02:33:16.364Z,3.0
2023-01-04T02:38:16.377Z,3.0
2023-01-04T02:43:16.522Z,2.4
2023-01-04T02:48:16.454Z,3.4
2023-01-04T02:58:16.372Z,1.4
2023-01-04T03:03:16.486Z,1.7
2023-01-04T03:08:16.367Z,1.7
2023-01-04T03:13:16.368Z,2.8
2023-01-04T03:18:16.369Z,1.8
2023-01-04T03:23:16.358Z,1.5
2023-01-04T03:33:16.352Z,2.4
2023-01-04T03:38:16.366Z,2.4
2023-01-04T03:43:16.368Z,1.9
2023-01-04T03:48:16.367Z,3.0
2023-01-04T03:53:16.352Z,2.5
2023-01-04T04:03:16.393Z,2.1
2023-01-04T04:08:16.366Z,2.1
2023-01-04T04:13:16.347Z,1.8
2023-01-04T04:18:16.381Z,1.3
2023-01-04T04:23:16.388Z,1.8
2023-01-04T04:28:16.365Z,1.7
2023-01-04T04:33:16.357Z,2.3
2023-01-04T04:38:16.390Z,2.3
2023-01-04T04:43:16.377Z,1.9
2023-01-04T04:58:16.358Z,5.3
2023-01-04T05:03:16.486Z,1.9
2023-01-04T05:08:16.373Z,1.9
2023-01-04T05:13:16.348Z,1.2
2023-01-04T05:18:16.382Z,2.1
2023-01-04T05:23:16.362Z,2.0
2023-01-04T05:28:16.374Z,0.5
2023-01-04T05:33:16.366Z,0.4
2023-01-04T05:38:16.394Z,0.4
2023-01-04T05:48:16.367Z,1.3
2023-01-04T05:58:16.355Z,3.2
2023-01-04T06:03:16.534Z,2.9
2023-01-04T06:08:16.378Z,2.9
2023-01-04T06:18:16.374Z,5.5
2023-01-04T06:23:16.376Z,4.1
2023-01-04T06:28:16.392Z,6.4
2023-01-04T06:33:16.361Z,6.8
2023-01-04T06:38:16.383Z,6.8
2023-01-04T06:43:16.363Z,6.7
2023-01-04T06:48:18.216Z,8.4
2023-01-04T06:58:16.377Z,14.0
2023-01-04T07:08:16.399Z,8.6
2023-01-04T07:13:16.379Z,11.1
2023-01-04T07:18:16.409Z,14.7
2023-01-04T07:23:16.380Z,7.5
2023-01-04T07:28:16.388Z,7.1
2023-01-04T07:38:16.412Z,7.3
2023-01-04T07:43:16.392Z,14.0
2023-01-04T07:48:16.383Z,11.5
2023-01-04T07:53:16.394Z,12.1
2023-01-04T07:58:16.385Z,15.2
2023-01-04T08:03:16.370Z,15.2
2023-01-04T08:08:16.395Z,16.6
2023-01-04T08:13:16.374Z,21.4
2023-01-04T08:18:19.930Z,17.2
2023-01-04T08:23:16.388Z,23.2
2023-01-04T08:28:16.382Z,22.3
2023-01-04T08:38:57.707Z,20.4
2023-01-04T08:43:16.375Z,24.9
2023-01-04T08:48:22.585Z,18.3
2023-01-04T08:53:16.377Z,22.6
2023-01-04T08:58:16.381Z,18.9
2023-01-04T09:03:16.435Z,18.9
2023-01-04T09:08:16.389Z,17.2
2023-01-04T09:13:16.376Z,20.7
2023-01-04T09:18:31.980Z,17.3
2023-01-04T09:23:16.384Z,10.5
2023-01-04T09:28:16.396Z,13.6
2023-01-04T09:33:16.411Z,13.6
2023-01-04T09:38:16.389Z,12.7
2023-01-04T09:43:21.124Z,12.4
2023-01-04T09:48:23.183Z,11.3
2023-01-04T09:53:16.393Z,13.3
2023-01-04T09:58:16.390Z,13.0
2023-01-04T10:03:16.532Z,13.0
2023-01-04T10:08:16.410Z,17.4
2023-01-04T10:13:16.401Z,19.6
2023-01-04T10:23:16.404Z,20.5
2023-01-04T10:28:16.414Z,12.0
2023-01-04T10:33:16.398Z,12.0
2023-01-04T10:38:16.414Z,10.5
2023-01-04T10:43:16.397Z,13.6
2023-01-04T10:48:16.390Z,11.4
2023-01-04T10:53:16.407Z,13.3
2023-01-04T10:58:16.372Z,12.2
2023-01-04T11:03:16.545Z,12.2
2023-01-04T11:08:16.410Z,13.2
2023-01-04T11:13:16.393Z,16.9
2023-01-04T11:18:16.407Z,14.4
2023-01-04T11:23:16.534Z,16.2
2023-01-04T11:28:16.419Z,18.2
2023-01-04T11:33:16.389Z,18.2
2023-01-04T11:38:16.402Z,10.5
2023-01-04T11:43:16.450Z,11.1
2023-01-04T11:48:16.404Z,9.1
2023-01-04T11:53:16.407Z,10.7
2023-01-04T11:58:16.406Z,15.3
2023-01-04T12:03:16.401Z,15.3
2023-01-04T12:08:16.414Z,10.6
2023-01-04T12:13:16.418Z,10.8
2023-01-04T12:18:16.426Z,11.7
2023-01-04T12:23:16.421Z,11.2
2023-01-04T12:28:20.831Z,13.4
2023-01-04T12:33:16.410Z,13.4
2023-01-04T12:38:16.423Z,10.6
2023-01-04T12:43:16.433Z,11.9
2023-01-04T12:48:16.421Z,11.5
2023-01-04T12:53:30.582Z,10.8
2023-01-04T12:58:16.450Z,10.4
2023-01-04T13:03:17.079Z,10.4
2023-01-04T13:08:16.420Z,9.7
2023-01-04T13:13:16.425Z,17.2
2023-01-04T13:18:16.439Z,18.4
2023-01-04T13:23:16.427Z,12.2
2023-01-04T13:28:17.390Z,14.4
2023-01-04T13:33:26.444Z,14.4
2023-01-04T13:38:16.444Z,15.6
2023-01-04T13:43:16.449Z,9.2
2023-01-04T13:48:16.428Z,12.4
2023-01-04T13:53:16.413Z,12.7
2023-01-04T13:58:16.457Z,11.7
2023-01-04T14:03:16.473Z,11.7
2023-01-04T14:08:16.455Z,14.5
2023-01-04T14:13:16.435Z,13.0
2023-01-04T14:23:21.284Z,11.3
2023-01-04T14:28:16.441Z,8.4
2023-01-04T14:33:16.431Z,8.4
2023-01-04T14:38:16.427Z,8.0
2023-01-04T14:43:16.423Z,6.9
2023-01-04T14:48:23.524Z,8.8
2023-01-04T14:53:16.428Z,11.1
2023-01-04T14:58:16.444Z,8.7
2023-01-04T15:03:16.721Z,8.7
2023-01-04T15:08:16.441Z,10.2
2023-01-04T15:13:16.424Z,8.3
2023-01-04T15:18:16.441Z,8.3
2023-01-04T15:23:16.454Z,7.3
2023-01-04T15:28:16.424Z,7.8
2023-01-04T15:33:16.435Z,7.8
2023-01-04T15:38:18.492Z,11.1
2023-01-04T15:43:16.441Z,7.7
2023-01-04T15:48:16.465Z,8.6
2023-01-04T15:53:16.425Z,11.3
2023-01-04T15:58:16.497Z,11.3
2023-01-04T16:03:16.573Z,11.3
2023-01-04T16:08:16.449Z,10.6
2023-01-04T16:18:16.439Z,13.1
2023-01-04T16:23:16.427Z,10.6
2023-01-04T16:28:16.450Z,10.0
2023-01-04T16:33:16.447Z,10.0
2023-01-04T16:38:16.439Z,11.2
2023-01-04T16:43:16.430Z,10.7
2023-01-04T16:48:18.661Z,12.4
2023-01-04T16:53:16.442Z,11.7
2023-01-04T16:58:16.429Z,10.3
2023-01-04T17:03:16.439Z,10.3
2023-01-04T17:08:19.616Z,11.5
2023-01-04T17:13:16.444Z,9.4
2023-01-04T17:18:16.446Z,7.6
2023-01-04T17:23:16.441Z,9.2
2023-01-04T17:28:21.282Z,7.0
2023-01-04T17:33:16.439Z,7.0
2023-01-04T17:38:16.498Z,6.5
2023-01-04T17:43:16.431Z,10.8
2023-01-04T17:48:16.469Z,9.4
2023-01-04T17:53:16.439Z,10.1
2023-01-04T17:58:19.912Z,11.4
2023-01-04T18:03:16.472Z,11.4
2023-01-04T18:08:16.443Z,10.7
2023-01-04T18:13:16.429Z,12.8
2023-01-04T18:18:16.467Z,14.6
2023-01-04T18:23:25.398Z,8.5
2023-01-04T18:28:16.444Z,12.2
2023-01-04T18:33:16.447Z,12.2
2023-01-04T18:38:16.455Z,14.3
2023-01-04T18:43:16.454Z,12.1
2023-01-04T18:48:16.465Z,14.5
2023-01-04T18:53:16.446Z,13.2
2023-01-04T18:58:16.459Z,15.7
2023-01-04T19:03:18.439Z,15.7
2023-01-04T19:08:16.451Z,12.9
2023-01-04T19:13:16.453Z,11.4
2023-01-04T19:18:16.444Z,16.2
2023-01-04T19:23:16.433Z,7.8
2023-01-04T19:28:16.441Z,8.1
2023-01-04T19:33:16.450Z,8.1
2023-01-04T19:38:16.446Z,10.4
2023-01-04T19:43:16.435Z,7.2
2023-01-04T19:48:16.446Z,10.3
2023-01-04T19:53:16.432Z,7.5
2023-01-04T19:58:16.452Z,11.3
2023-01-04T20:03:16.623Z,11.3
2023-01-04T20:08:16.449Z,7.3
2023-01-04T20:13:16.437Z,11.7
2023-01-04T20:18:16.454Z,7.5
2023-01-04T20:23:16.451Z,17.5
2023-01-04T20:28:16.438Z,13.0
2023-01-04T20:33:16.443Z,13.0
2023-01-04T20:38:16.448Z,13.0
2023-01-04T20:43:16.463Z,9.8
2023-01-04T20:48:16.472Z,11.8
2023-01-04T20:53:16.482Z,10.6
2023-01-04T20:58:16.484Z,16.4
2023-01-04T21:03:16.661Z,16.4
2023-01-04T21:13:16.488Z,12.3
2023-01-04T21:18:16.503Z,10.1
2023-01-04T21:23:16.531Z,14.6
2023-01-04T21:28:16.589Z,12.3
2023-01-04T21:33:16.531Z,12.3
2023-01-04T21:38:16.587Z,14.0
2023-01-04T21:43:16.527Z,12.3
2023-01-04T21:48:16.609Z,16.1
2023-01-04T21:53:16.571Z,10.6
2023-01-04T21:58:16.652Z,8.9
2023-01-04T22:03:16.591Z,8.9
2023-01-04T22:08:16.656Z,14.4
2023-01-04T22:13:16.570Z,15.8
2023-01-04T22:18:16.641Z,11.4
2023-01-04T22:23:16.576Z,9.0
2023-01-04T22:28:16.681Z,9.2
2023-01-04T22:33:16.619Z,9.2
2023-01-04T22:38:16.735Z,11.3
2023-01-04T22:43:16.624Z,8.1
2023-01-04T22:48:16.748Z,12.6
2023-01-04T22:53:16.654Z,9.9
2023-01-04T22:58:16.772Z,8.6
2023-01-04T23:03:16.827Z,8.6
2023-01-04T23:08:16.788Z,9.7
2023-01-04T23:13:16.658Z,11.5
2023-01-04T23:18:16.795Z,9.0
2023-01-04T23:23:16.675Z,6.9
2023-01-04T23:28:16.713Z,6.7
2023-01-04T23:33:16.698Z,6.7
2023-01-04T23:38:16.757Z,6.3
2023-01-04T23:43:16.705Z,11.3
2023-01-04T23:48:16.847Z,9.5
2023-01-04T23:53:16.748Z,9.9
2023-01-04T23:58:16.845Z,8.9
